Cobb County-Mc Collum Field
KRYY : now visible

Airfield :











YOU CAN JOIN US ON...

 
LOGIN :

Register | Disclaimer

   EN    FR    IT 

 









Legend :    VFR   Marginal VFR   IFR   Intensive IFR   Very Intensive IFR
Visi :
Ceiling :
>= 8 km
>= 3000ft
5 to 8 km
1000 to 3000 ft
1500m to 5 km
500 to 1000 ft
800 to 1500m
200 to 500 ft
< 800m
< 200 ft
Symbols :   Thunderstorms  Fog  Heavy snow  Heavy precipitations  Wind > 20 kt






- Airport Elevation : 1040 ft


KRYY - Cobb County-Mc Collum Field

CURRENT METAR :
  • 192050Z 31006KT 10SM BKN024 28/23 A3008 RMK AO2 LTG DSNT E SLPNO 6//// T02800230 56017 $

EXPIRED METARs :
  • 191950Z COR 31006KT 10SM BKN024 28/23 A3008 RMK AO2 SLPNO T02800230 $
  • 191937Z 27006KT 10SM BKN022 28/23 A3008 RMK AO2 LTG DSNT E $
  • 191850Z 26006KT 10SM BKN017 25/24 A3012 RMK AO2 LTG DSNT N AND NE RAE08 SLPNO T02500240 $
  • 191750Z 26006KT 10SM -RA BKN017 26/25 A3013 RMK AO2 LTG DSNT N AND NW RAB30 SLPNO 6//// T02600250 10261 20222 52006 $
  • 191650Z 34005KT 10SM BKN014 26/23 A3012 RMK AO2 LTG DSNT W AND NW SLPNO T02600230 $

TAF KRYY
Valid from the 19 at 18:00 until the 20 at 18:00 UTC


191740Z 1918/2018 32003KT P6SM VCSH BKN025
TEMPO 1918/1922 4SM TSRA BR OVC015CB
FM200100 00000KT P6SM VCSH BKN070
FM200800 00000KT 4SM BR VCSH BKN006
FM201600 20005KT P6SM BKN010
KZTL FIR / North America



MET'MAP, your aeronautical weather chart ! - Copyright ORBIFLY December 2007 - Disclaimer

ORBIFLY MET'MAP TEAM :

Programming & Development : Alexandra Zaïnal
Original concept : Baudouin d'Aumeries
Technical & hardware support : Manuel Goepfert
Assistance : Marc-Olivier Méhu




SOURCES & CREDITS :

   NOAA       Earth
Advisory